Time;durP1;ratioP1;P1;durP2;ratioP2;P2;SDS_P1;SDS_P2;PMS_P1;PMS_P2;Temp;Humidity;BMP_temperature;BMP_pressure;BME280_temperature;BME280_humidity;BME280_pressure;Samples;Min_cycle;Max_cycle;Signal;HPM_P1;HPM_P2
2021/12/22 00:00:50;;;;;;;;;;;;;;;17.61;55.76;102031.06;5019287;28;2018;-41
2021/12/22 00:03:17;;;;;;;;;;;;;;;17.55;55.96;102035.94;5031858;28;1725;-41
2021/12/22 00:05:46;;;;;;;;;;;;;;;17.52;55.88;102036.13;5017445;28;1680;-41
2021/12/22 00:08:14;;;;;;;;;;;;;;;17.50;56.31;102034.41;5020451;28;1735;-41
2021/12/22 00:10:40;;;;;;;;;;;;;;;17.48;56.23;102048.84;5015967;28;1915;-41
2021/12/22 00:13:07;;;;;;;;;;;;;;;17.42;56.01;102030.50;5015127;28;1003;-41
2021/12/22 00:15:35;;;;;;;;;;;;;;;17.37;56.02;102038.81;5016553;28;1862;-41
2021/12/22 00:18:06;;;;;;;;;;;;;;;17.36;55.52;102042.41;5029550;28;1728;-41
2021/12/22 00:20:36;;;;;;;;;;;;;;;17.33;55.73;102041.75;5022890;28;1983;-41
2021/12/22 00:23:03;;;;;;;;;;;;;;;17.31;56.05;102044.53;5034392;28;1419;-41
2021/12/22 00:25:31;;;;;;;;;;;;;;;17.25;56.12;102039.56;5034214;28;1143;-42
2021/12/22 00:27:58;;;;;;;;;;;;;;;17.24;56.18;102056.53;5027884;28;994;-41
2021/12/22 00:30:25;;;;;;;;;;;;;;;17.20;56.03;102052.31;5034155;28;1539;-41
2021/12/22 00:33:02;;;;;;;;;;;;;;;17.21;56.17;102059.38;5028133;28;1753;-41
2021/12/22 00:35:37;;;;;;;;;;;;;;;17.19;55.39;102040.78;5016166;28;1748;-41
2021/12/22 00:38:04;;;;;;;;;;;;;;;17.17;55.76;102048.03;5034615;28;1856;-41
2021/12/22 00:40:30;;;;;;;;;;;;;;;17.16;55.93;102067.69;5025276;28;1907;-41
2021/12/22 00:42:58;;;;;;;;;;;;;;;17.14;55.50;102063.38;5018148;28;1103;-41
2021/12/22 00:45:30;;;;;;;;;;;;;;;17.13;55.57;102072.34;5020712;28;1942;-41
2021/12/22 00:48:00;;;;;;;;;;;;;;;17.08;55.69;102065.47;5031022;28;1881;-41
2021/12/22 00:50:27;;;;;;;;;;;;;;;17.07;55.93;102065.59;5032200;28;1807;-41
2021/12/22 00:52:54;;;;;;;;;;;;;;;17.05;55.59;102067.44;5026502;28;1578;-41
2021/12/22 00:55:21;;;;;;;;;;;;;;;17.03;56.07;102080.94;5017914;28;1083;-41
2021/12/22 00:57:53;;;;;;;;;;;;;;;17.02;55.76;102070.31;5015356;28;1088;-41
2021/12/22 01:00:25;;;;;;;;;;;;;;;16.99;55.89;102074.03;5024865;28;1978;-41
2021/12/22 01:02:54;;;;;;;;;;;;;;;16.97;55.70;102069.72;5031092;28;1886;-41
2021/12/22 01:05:22;;;;;;;;;;;;;;;16.97;56.00;102073.28;5029317;28;1300;-41
2021/12/22 01:07:50;;;;;;;;;;;;;;;16.96;55.10;102087.56;5028948;28;1604;-41
2021/12/22 01:10:18;;;;;;;;;;;;;;;16.95;56.01;102082.31;5027783;28;1077;-41
2021/12/22 01:12:47;;;;;;;;;;;;;;;16.89;55.93;102073.72;5014745;28;2123;-41
2021/12/22 01:15:15;;;;;;;;;;;;;;;16.91;55.65;102076.31;5025975;28;1689;-41
2021/12/22 01:17:46;;;;;;;;;;;;;;;16.87;55.66;102069.41;5026827;28;2028;-41
2021/12/22 01:20:38;;;;;;;;;;;;;;;16.89;55.68;102070.16;5029109;28;1778;-41
2021/12/22 01:23:10;;;;;;;;;;;;;;;16.85;55.62;102069.50;5028121;28;1796;-43
2021/12/22 01:25:42;;;;;;;;;;;;;;;16.83;55.25;102065.19;5020263;28;1691;-43
2021/12/22 01:28:09;;;;;;;;;;;;;;;16.83;55.82;102070.53;5014042;28;1003;-43
2021/12/22 01:31:00;;;;;;;;;;;;;;;16.84;54.99;102072.25;5022551;28;1764;-43
2021/12/22 01:33:28;;;;;;;;;;;;;;;16.80;55.14;102060.00;5026038;28;1834;-43
2021/12/22 01:35:54;;;;;;;;;;;;;;;16.81;54.68;102067.06;5028716;28;1670;-43
2021/12/22 01:38:28;;;;;;;;;;;;;;;16.80;55.79;102068.88;5033983;28;1709;-43
2021/12/22 01:40:58;;;;;;;;;;;;;;;16.74;55.30;102055.03;5030840;28;1907;-43
2021/12/22 01:43:26;;;;;;;;;;;;;;;16.72;55.02;102065.78;5028354;28;1557;-43
2021/12/22 01:45:57;;;;;;;;;;;;;;;16.74;55.68;102055.88;5026994;28;1798;-43
2021/12/22 01:51:26;;;;;;;;;;;;;;;16.70;55.62;102055.19;5037406;28;1886;-43
2021/12/22 01:54:10;;;;;;;;;;;;;;;16.68;54.70;102051.75;5038418;28;1961;-43
2021/12/22 01:56:38;;;;;;;;;;;;;;;16.66;55.10;102074.16;5039158;28;1515;-43
2021/12/22 01:59:08;;;;;;;;;;;;;;;16.66;54.57;102064.31;5042039;28;1952;-43
2021/12/22 02:01:35;;;;;;;;;;;;;;;16.67;54.54;102050.03;5035827;28;1975;-43
2021/12/22 02:04:02;;;;;;;;;;;;;;;16.67;55.08;102054.50;5032575;28;1992;-43
2021/12/22 02:06:29;;;;;;;;;;;;;;;16.68;55.29;102046.41;5024127;28;1824;-43
2021/12/22 02:09:01;;;;;;;;;;;;;;;16.64;54.32;102055.53;5020087;28;1841;-43
2021/12/22 02:11:27;;;;;;;;;;;;;;;16.63;54.59;102058.28;5039883;28;1609;-43
2021/12/22 02:13:59;;;;;;;;;;;;;;;16.59;55.43;102060.31;5049715;28;2123;-43
2021/12/22 02:16:30;;;;;;;;;;;;;;;16.58;55.48;102055.91;5047022;28;1891;-43
2021/12/22 02:19:02;;;;;;;;;;;;;;;16.54;55.10;102065.03;5043374;28;1766;-43
2021/12/22 02:21:41;;;;;;;;;;;;;;;16.57;55.21;102061.31;5040283;28;1977;-43
2021/12/22 02:24:08;;;;;;;;;;;;;;;16.58;54.60;102073.75;5042090;28;1599;-43
2021/12/22 02:26:39;;;;;;;;;;;;;;;16.54;54.42;102054.34;5034761;28;1809;-43
2021/12/22 02:29:18;;;;;;;;;;;;;;;16.53;55.38;102057.97;5017850;28;1943;-43
2021/12/22 02:32:01;;;;;;;;;;;;;;;16.50;54.94;102047.47;5046731;28;1497;-43
2021/12/22 02:34:32;;;;;;;;;;;;;;;16.58;54.38;102058.56;5049485;28;1441;-43
2021/12/22 02:37:10;;;;;;;;;;;;;;;17.08;53.80;102043.22;5035660;28;1685;-43
2021/12/22 02:39:51;;;;;;;;;;;;;;;18.12;51.39;102037.75;5042315;28;1781;-43
2021/12/22 02:42:23;;;;;;;;;;;;;;;19.20;49.21;102036.81;5044963;28;1910;-43
2021/12/22 02:44:50;;;;;;;;;;;;;;;19.53;47.71;102035.47;5035692;28;1976;-43
2021/12/22 02:47:21;;;;;;;;;;;;;;;19.68;47.34;102034.38;5031211;28;1759;-43
2021/12/22 02:49:56;;;;;;;;;;;;;;;19.51;47.71;102022.13;5021383;28;1780;-43
2021/12/22 02:52:39;;;;;;;;;;;;;;;19.34;48.25;102036.75;5031264;28;1340;-43
2021/12/22 02:55:06;;;;;;;;;;;;;;;19.03;49.82;102032.63;5026951;28;1938;-43
2021/12/22 02:57:39;;;;;;;;;;;;;;;18.78;50.19;102038.75;5025270;28;1105;-43
2021/12/22 03:03:00;;;;;;;;;;;;;;;18.78;50.41;102033.41;5100857;22;1957;-43
2021/12/22 03:05:28;;;;;;;;;;;;;;;19.22;49.19;102033.09;5072222;28;1725;-43
2021/12/22 03:08:02;;;;;;;;;;;;;;;19.69;48.32;102030.72;5075511;28;1610;-43
2021/12/22 03:10:35;;;;;;;;;;;;;;;19.80;48.31;102022.78;5075507;28;1833;-43
2021/12/22 03:13:03;;;;;;;;;;;;;;;19.58;48.46;102028.81;5075226;28;1071;-43
2021/12/22 03:15:30;;;;;;;;;;;;;;;19.38;49.32;102027.53;5075293;28;2013;-43
2021/12/22 03:17:57;;;;;;;;;;;;;;;19.20;49.16;102026.09;5074952;28;1690;-42
2021/12/22 03:20:26;;;;;;;;;;;;;;;18.92;50.11;102046.78;5075070;28;1836;-43
2021/12/22 03:22:54;;;;;;;;;;;;;;;18.81;50.41;102043.97;5074718;28;1921;-43
2021/12/22 03:25:27;;;;;;;;;;;;;;;18.83;50.82;102042.03;5074197;28;1225;-43
2021/12/22 03:27:56;;;;;;;;;;;;;;;18.99;50.29;102048.06;5075293;28;1440;-43
2021/12/22 03:30:28;;;;;;;;;;;;;;;19.43;48.90;102051.34;5075095;28;1400;-43
2021/12/22 03:32:58;;;;;;;;;;;;;;;19.85;48.67;102054.66;5074492;28;1774;-43
2021/12/22 03:35:25;;;;;;;;;;;;;;;20.17;46.67;102036.22;5074875;28;1788;-43
2021/12/22 03:37:55;;;;;;;;;;;;;;;19.86;47.43;102038.44;5075161;28;1971;-43
2021/12/22 03:40:32;;;;;;;;;;;;;;;19.48;49.00;102043.84;5075110;28;1784;-43
2021/12/22 03:43:02;;;;;;;;;;;;;;;19.17;49.36;102061.19;5073514;28;1913;-43
2021/12/22 03:45:29;;;;;;;;;;;;;;;18.92;50.53;102076.28;5074686;28;1563;-43
2021/12/22 03:47:56;;;;;;;;;;;;;;;18.78;50.20;102076.28;5074273;28;1592;-43
2021/12/22 03:50:26;;;;;;;;;;;;;;;18.81;50.51;102066.25;5073939;28;1696;-43
2021/12/22 03:52:56;;;;;;;;;;;;;;;18.85;50.60;102053.50;5074828;28;1142;-43
2021/12/22 03:55:28;;;;;;;;;;;;;;;19.17;49.10;102062.03;5074380;28;1903;-43
2021/12/22 03:57:58;;;;;;;;;;;;;;;19.76;47.72;102053.50;5074390;28;1898;-43
2021/12/22 04:00:30;;;;;;;;;;;;;;;20.02;47.38;102050.78;5073692;28;1622;-43
2021/12/22 04:02:58;;;;;;;;;;;;;;;19.89;47.39;102063.38;5073887;28;1914;-43
2021/12/22 04:05:26;;;;;;;;;;;;;;;19.65;48.96;102056.06;5067983;28;1535;-43
2021/12/22 04:07:54;;;;;;;;;;;;;;;19.27;49.65;102073.84;5074021;28;1340;-43
2021/12/22 04:10:22;;;;;;;;;;;;;;;19.08;50.61;102068.06;5074474;28;1018;-43
2021/12/22 04:12:53;;;;;;;;;;;;;;;18.81;51.39;102082.34;5074299;28;1715;-43
2021/12/22 04:15:22;;;;;;;;;;;;;;;18.66;51.88;102086.88;5073965;28;1909;-43
2021/12/22 04:17:49;;;;;;;;;;;;;;;18.79;51.83;102080.69;5073960;28;1940;-43
2021/12/22 04:20:16;;;;;;;;;;;;;;;19.02;51.00;102081.84;5073190;28;1468;-43
2021/12/22 04:22:46;;;;;;;;;;;;;;;18.93;51.36;102086.00;5074326;28;1906;-43
2021/12/22 04:25:20;;;;;;;;;;;;;;;18.92;51.95;102078.94;5074259;28;1852;-43
2021/12/22 04:27:47;;;;;;;;;;;;;;;18.97;51.32;102079.47;5074125;28;1143;-43
2021/12/22 04:30:20;;;;;;;;;;;;;;;19.00;51.09;102087.34;5073257;28;1878;-43
2021/12/22 04:32:49;;;;;;;;;;;;;;;18.97;51.33;102082.16;5073828;28;1388;-43
2021/12/22 04:35:18;;;;;;;;;;;;;;;18.96;51.49;102090.31;5074047;28;2011;-43
2021/12/22 04:37:47;;;;;;;;;;;;;;;18.70;52.46;102098.22;5073898;28;1955;-43
2021/12/22 04:40:14;;;;;;;;;;;;;;;18.62;52.29;102093.38;5074104;28;2071;-43
2021/12/22 04:42:43;;;;;;;;;;;;;;;18.85;52.28;102091.03;5075223;28;1977;-43
2021/12/22 04:45:13;;;;;;;;;;;;;;;18.90;52.36;102085.34;5073217;28;1791;-43
2021/12/22 04:47:44;;;;;;;;;;;;;;;18.90;51.89;102094.28;5073910;28;1822;-43
2021/12/22 04:50:14;;;;;;;;;;;;;;;18.93;51.67;102098.56;5073552;28;1420;-43
2021/12/22 04:52:47;;;;;;;;;;;;;;;18.97;51.79;102090.22;5065108;28;1777;-43
2021/12/22 04:55:17;;;;;;;;;;;;;;;19.03;51.93;102097.84;5073542;28;1755;-43
2021/12/22 04:57:49;;;;;;;;;;;;;;;19.07;51.41;102093.13;5073714;28;1131;-43
2021/12/22 05:00:17;;;;;;;;;;;;;;;19.04;51.47;102094.19;5073547;28;1784;-41
2021/12/22 05:02:50;;;;;;;;;;;;;;;19.03;52.34;102097.84;5067788;28;1968;-41
2021/12/22 05:05:21;;;;;;;;;;;;;;;18.86;52.67;102095.41;5073309;28;1789;-41
2021/12/22 05:07:48;;;;;;;;;;;;;;;18.78;52.46;102103.97;5065855;28;1525;-41
2021/12/22 05:10:17;;;;;;;;;;;;;;;18.42;54.38;102101.84;5071530;28;1384;-41
2021/12/22 05:12:46;;;;;;;;;;;;;;;18.47;54.99;102105.09;5071149;28;1422;-40
2021/12/22 05:15:12;;;;;;;;;;;;;;;18.43;55.50;102108.94;5071119;28;1347;-41
2021/12/22 05:18:12;;;;;;;;;;;;;;;18.44;56.84;102110.63;5068222;28;1458;-41
2021/12/22 05:20:44;;;;;;;;;;;;;;;18.38;56.38;102116.41;5030117;28;10699;-42
2021/12/22 05:23:26;;;;;;;;;;;;;;;18.39;56.90;102108.25;5004426;28;11161;-43
2021/12/22 05:26:02;;;;;;;;;;;;;;;18.24;57.07;102112.81;5049566;28;1387;-43
2021/12/22 05:28:30;;;;;;;;;;;;;;;18.27;57.02;102120.63;5044328;28;1683;-43
2021/12/22 05:30:56;;;;;;;;;;;;;;;18.37;55.33;102120.03;5042396;28;1873;-42
2021/12/22 05:33:23;;;;;;;;;;;;;;;18.15;56.52;102113.38;5049015;28;1672;-43
2021/12/22 05:35:56;;;;;;;;;;;;;;;17.97;56.65;102111.88;5047471;28;1475;-42
2021/12/22 05:38:22;;;;;;;;;;;;;;;17.72;57.23;102123.19;5050927;28;1566;-43
2021/12/22 05:40:53;;;;;;;;;;;;;;;17.68;58.12;102123.34;5049955;28;1747;-39
2021/12/22 05:43:21;;;;;;;;;;;;;;;18.14;57.08;102129.53;5044831;28;1909;-39
2021/12/22 05:45:51;;;;;;;;;;;;;;;18.43;56.31;102106.25;5047209;28;1591;-39
2021/12/22 05:48:20;;;;;;;;;;;;;;;18.72;55.86;102131.16;5051783;28;1481;-39
2021/12/22 05:50:51;;;;;;;;;;;;;;;18.82;55.66;102123.38;5052595;28;1392;-39
2021/12/22 05:53:24;;;;;;;;;;;;;;;18.94;54.99;102125.28;5050494;28;1716;-39
2021/12/22 05:55:52;;;;;;;;;;;;;;;19.12;54.85;102116.94;5055513;28;1316;-40
2021/12/22 05:58:23;;;;;;;;;;;;;;;19.11;53.79;102131.31;5057340;28;2066;-39
2021/12/22 06:00:49;;;;;;;;;;;;;;;19.04;53.64;102129.06;5055695;28;1520;-39
2021/12/22 06:03:20;;;;;;;;;;;;;;;18.75;54.07;102127.41;5054438;28;1906;-37
2021/12/22 06:05:47;;;;;;;;;;;;;;;18.54;55.82;102132.34;5053116;28;1845;-39
2021/12/22 06:08:17;;;;;;;;;;;;;;;18.01;57.35;102143.69;5054303;28;2106;-38
2021/12/22 06:10:48;;;;;;;;;;;;;;;17.46;53.77;102129.16;5054753;28;1953;-37
2021/12/22 06:13:20;;;;;;;;;;;;;;;17.18;57.20;102126.41;5056535;28;944;-37
2021/12/22 06:15:49;;;;;;;;;;;;;;;17.05;58.74;102127.13;5055873;28;1739;-37
2021/12/22 06:18:18;;;;;;;;;;;;;;;16.96;58.59;102140.16;5056707;28;1508;-37
2021/12/22 06:20:47;;;;;;;;;;;;;;;16.86;59.26;102129.13;5056623;28;1780;-37
2021/12/22 06:23:16;;;;;;;;;;;;;;;16.79;58.60;102133.94;5056166;28;1910;-37
2021/12/22 06:25:42;;;;;;;;;;;;;;;16.75;59.29;102136.88;5055501;28;1611;-37
2021/12/22 06:28:13;;;;;;;;;;;;;;;16.76;59.00;102150.13;5056517;28;1135;-37
2021/12/22 06:30:40;;;;;;;;;;;;;;;17.03;58.91;102137.06;5056448;28;1919;-37
2021/12/22 06:33:10;;;;;;;;;;;;;;;17.48;57.00;102143.28;5056208;28;2704;-37
2021/12/22 06:35:36;;;;;;;;;;;;;;;17.40;57.74;102145.56;5056094;28;1593;-37
2021/12/22 06:38:03;;;;;;;;;;;;;;;17.55;57.01;102142.91;5056342;28;1779;-37
2021/12/22 06:40:39;;;;;;;;;;;;;;;17.61;57.03;102147.94;5055727;28;1804;-39
2021/12/22 06:43:06;;;;;;;;;;;;;;;17.63;57.24;102146.00;5036582;28;1983;-37
2021/12/22 06:45:38;;;;;;;;;;;;;;;17.63;57.08;102152.22;5049098;28;1994;-37
2021/12/22 06:48:07;;;;;;;;;;;;;;;17.61;56.57;102142.56;5055836;28;1981;-37
2021/12/22 06:50:33;;;;;;;;;;;;;;;17.74;56.72;102140.84;5055659;28;1668;-37
2021/12/22 06:53:03;;;;;;;;;;;;;;;17.77;56.54;102143.34;5055050;28;1793;-37
2021/12/22 06:55:32;;;;;;;;;;;;;;;17.97;55.99;102141.31;5055708;28;1833;-37
2021/12/22 06:58:02;;;;;;;;;;;;;;;17.93;56.00;102137.09;5055448;28;1077;-37
2021/12/22 07:00:30;;;;;;;;;;;;;;;17.93;55.90;102137.09;5054802;28;1718;-37
2021/12/22 07:03:01;;;;;;;;;;;;;;;18.00;55.96;102149.97;5055049;28;1954;-37
2021/12/22 07:05:30;;;;;;;;;;;;;;;18.06;56.04;102164.81;5055173;28;1429;-37
2021/12/22 07:07:59;;;;;;;;;;;;;;;18.06;55.92;102165.69;5055684;28;1680;-37
2021/12/22 07:10:25;;;;;;;;;;;;;;;18.08;55.94;102168.25;5053861;28;2040;-37
2021/12/22 07:12:55;;;;;;;;;;;;;;;17.97;56.21;102142.16;5055903;28;1081;-37
2021/12/22 07:15:22;;;;;;;;;;;;;;;17.92;56.27;102157.63;5055705;28;1797;-37
2021/12/22 07:17:53;;;;;;;;;;;;;;;17.97;56.41;102154.69;5053965;28;1599;-37
2021/12/22 07:20:23;;;;;;;;;;;;;;;17.87;56.60;102157.06;5055020;28;1288;-37
2021/12/22 07:22:50;;;;;;;;;;;;;;;18.10;55.97;102150.28;5055300;28;1990;-37
2021/12/22 07:25:23;;;;;;;;;;;;;;;18.03;56.33;102160.50;5054754;28;1575;-37
2021/12/22 07:27:53;;;;;;;;;;;;;;;18.10;56.11;102139.56;5055674;28;1097;-37
2021/12/22 07:30:21;;;;;;;;;;;;;;;18.16;55.75;102147.22;5055243;28;1814;-39
2021/12/22 07:32:48;;;;;;;;;;;;;;;18.20;56.19;102161.28;5055243;28;2002;-39
2021/12/22 07:35:16;;;;;;;;;;;;;;;18.19;56.32;102154.22;5055182;28;1774;-39
2021/12/22 07:37:48;;;;;;;;;;;;;;;18.22;56.40;102146.84;5054565;28;1756;-39
2021/12/22 07:40:16;;;;;;;;;;;;;;;18.43;55.44;102157.16;5054877;28;1419;-39
2021/12/22 07:42:43;;;;;;;;;;;;;;;18.38;55.75;102152.09;5055220;28;1926;-39
2021/12/22 07:45:11;;;;;;;;;;;;;;;18.31;56.39;102147.22;5054396;28;1424;-39
2021/12/22 07:47:38;;;;;;;;;;;;;;;18.32;55.81;102151.59;5055003;28;1735;-39
2021/12/22 07:50:06;;;;;;;;;;;;;;;18.37;56.03;102152.19;5054561;28;1524;-39
2021/12/22 07:52:33;;;;;;;;;;;;;;;18.55;55.47;102174.25;5055251;28;1008;-39
2021/12/22 07:55:04;;;;;;;;;;;;;;;18.56;55.43;102149.16;5054138;28;1552;-39
2021/12/22 07:57:31;;;;;;;;;;;;;;;18.79;54.54;102158.41;5054508;28;1834;-39
2021/12/22 08:00:01;;;;;;;;;;;;;;;18.65;55.64;102149.44;5054464;28;1786;-40
2021/12/22 08:02:28;;;;;;;;;;;;;;;18.57;55.40;102146.41;5054160;28;1973;-39
2021/12/22 08:04:58;;;;;;;;;;;;;;;18.69;54.69;102158.16;5054890;28;1078;-39
2021/12/22 08:07:25;;;;;;;;;;;;;;;18.80;55.04;102154.78;5054632;28;1944;-39
2021/12/22 08:09:52;;;;;;;;;;;;;;;18.74;55.51;102153.34;5053950;28;2018;-39
2021/12/22 08:12:25;;;;;;;;;;;;;;;18.80;54.91;102163.72;5054224;28;1588;-39
2021/12/22 08:14:59;;;;;;;;;;;;;;;18.87;54.86;102156.13;5054469;28;1956;-39
2021/12/22 08:17:31;;;;;;;;;;;;;;;18.90;54.46;102161.28;5041817;28;1805;-38
2021/12/22 08:19:58;;;;;;;;;;;;;;;18.86;54.74;102168.66;5053720;28;1290;-39
2021/12/22 08:22:28;;;;;;;;;;;;;;;18.93;54.35;102165.56;5053908;28;1902;-39
2021/12/22 08:24:56;;;;;;;;;;;;;;;18.90;55.02;102161.28;5054255;28;1799;-39
2021/12/22 08:27:28;;;;;;;;;;;;;;;18.94;54.46;102168.16;5053544;28;1155;-39
2021/12/22 08:29:57;;;;;;;;;;;;;;;18.80;55.07;102176.22;5054046;28;1973;-40
2021/12/22 08:32:24;;;;;;;;;;;;;;;18.72;55.27;102174.03;5054072;28;1819;-39
2021/12/22 08:34:55;;;;;;;;;;;;;;;18.69;55.52;102175.06;5054032;28;1644;-39
2021/12/22 08:40:10;;;;;;;;;;;;;;;18.93;55.58;102166.44;5053866;28;1712;-39
2021/12/22 08:42:38;;;;;;;;;;;;;;;18.80;55.23;102187.81;5054202;28;1954;-39
2021/12/22 08:45:08;;;;;;;;;;;;;;;18.88;55.45;102164.06;5053967;28;1862;-39
2021/12/22 08:47:34;;;;;;;;;;;;;;;18.97;55.30;102177.81;5053486;28;1864;-37
2021/12/22 08:50:01;;;;;;;;;;;;;;;18.99;54.98;102171.38;5054320;28;2031;-37
2021/12/22 08:52:31;;;;;;;;;;;;;;;18.93;55.05;102177.16;5054143;28;1047;-37
2021/12/22 08:54:58;;;;;;;;;;;;;;;19.00;55.25;102173.13;5053599;28;1746;-37
2021/12/22 08:57:25;;;;;;;;;;;;;;;18.95;55.06;102153.78;5050999;28;1465;-37
2021/12/22 09:00:09;;;;;;;;;;;;;;;19.02;54.79;102163.16;5052956;28;1584;-37
2021/12/22 09:02:38;;;;;;;;;;;;;;;19.15;54.74;102168.53;5035108;28;1941;-36
2021/12/22 09:05:07;;;;;;;;;;;;;;;19.01;55.25;102153.38;5047389;28;1632;-37
2021/12/22 09:07:36;;;;;;;;;;;;;;;19.11;54.72;102152.78;5053747;28;1089;-37
2021/12/22 09:10:06;;;;;;;;;;;;;;;19.01;55.59;102155.19;5053289;28;1868;-37
2021/12/22 09:12:36;;;;;;;;;;;;;;;19.08;55.04;102165.44;5053507;28;1107;-37
2021/12/22 09:15:10;;;;;;;;;;;;;;;19.12;55.28;102162.53;5053086;28;1990;-37
2021/12/22 09:17:37;;;;;;;;;;;;;;;19.11;54.58;102152.78;5052720;28;1380;-37
2021/12/22 09:20:05;;;;;;;;;;;;;;;19.13;54.66;102166.94;5053059;28;1672;-37
2021/12/22 09:22:34;;;;;;;;;;;;;;;19.11;54.92;102152.78;5052421;28;1766;-37
2021/12/22 09:25:03;;;;;;;;;;;;;;;19.12;55.28;102149.13;5052390;28;1965;-37
2021/12/22 09:27:30;;;;;;;;;;;;;;;19.15;55.15;102152.47;5053629;28;1005;-37
2021/12/22 09:29:56;;;;;;;;;;;;;;;19.02;54.94;102148.88;5050913;28;1879;-37
2021/12/22 09:32:27;;;;;;;;;;;;;;;19.06;55.38;102151.25;5052730;28;1810;-37
2021/12/22 09:34:55;;;;;;;;;;;;;;;19.03;55.46;102138.03;5053126;28;1676;-37
2021/12/22 09:37:25;;;;;;;;;;;;;;;19.03;55.77;102140.72;5053275;28;1664;-37
2021/12/22 09:39:53;;;;;;;;;;;;;;;19.11;54.88;102136.69;5040502;28;1668;-37
2021/12/22 09:42:20;;;;;;;;;;;;;;;19.12;55.04;102133.91;5053225;28;1173;-37
2021/12/22 09:44:47;;;;;;;;;;;;;;;19.00;56.46;102146.31;5052919;28;2001;-37
2021/12/22 09:47:26;;;;;;;;;;;;;;;18.95;56.37;102137.69;5053141;28;1915;-37
2021/12/22 09:52:44;;;;;;;;;;;;;;;18.91;55.90;102141.53;5034709;28;1693;-37
2021/12/22 09:55:14;;;;;;;;;;;;;;;18.92;56.07;102137.91;5052838;28;1747;-37
2021/12/22 09:57:44;;;;;;;;;;;;;;;18.83;56.75;102122.44;5053379;28;1011;-37
2021/12/22 10:00:14;;;;;;;;;;;;;;;18.71;56.56;102117.84;5053964;28;1729;-39
2021/12/22 10:02:43;;;;;;;;;;;;;;;18.76;57.00;102126.44;5052293;28;1386;-39
2021/12/22 10:05:13;;;;;;;;;;;;;;;18.73;56.72;102119.47;5054089;28;1975;-40
2021/12/22 10:10:26;;;;;;;;;;;;;;;18.72;56.66;102130.28;5052516;28;1851;-39
2021/12/22 10:13:04;;;;;;;;;;;;;;;18.86;56.32;102124.91;5052939;28;1077;-39
2021/12/22 10:15:35;;;;;;;;;;;;;;;18.84;55.75;102140.22;5052708;28;2027;-38
2021/12/22 10:18:09;;;;;;;;;;;;;;;18.86;56.31;102120.41;5052718;28;1640;-39
2021/12/22 10:20:42;;;;;;;;;;;;;;;18.89;55.72;102108.63;5052893;28;1990;-39
2021/12/22 10:23:21;;;;;;;;;;;;;;;18.96;55.32;102109.94;5051605;28;1915;-39
2021/12/22 10:25:51;;;;;;;;;;;;;;;18.87;55.64;102105.19;5052837;28;1830;-37
2021/12/22 10:28:19;;;;;;;;;;;;;;;18.85;55.63;102105.28;5053253;28;1934;-37
2021/12/22 10:30:58;;;;;;;;;;;;;;;18.90;55.69;102102.31;5052382;28;1549;-37
2021/12/22 10:33:28;;;;;;;;;;;;;;;18.91;56.15;102109.38;5053861;28;1468;-37
2021/12/22 10:35:57;;;;;;;;;;;;;;;19.07;55.66;102109.22;5056367;28;1951;-37
2021/12/22 10:38:24;;;;;;;;;;;;;;;19.14;55.38;102109.66;5055370;28;1718;-37
2021/12/22 10:40:55;;;;;;;;;;;;;;;19.08;55.03;102094.88;5056253;28;1902;-37
2021/12/22 10:43:26;;;;;;;;;;;;;;;19.11;55.94;102083.91;5056179;28;1973;-37
2021/12/22 10:46:01;;;;;;;;;;;;;;;19.19;55.26;102096.81;5055963;28;1646;-37
2021/12/22 10:51:29;;;;;;;;;;;;;;;19.38;55.04;102093.75;5054000;28;1933;-37
2021/12/22 10:53:57;;;;;;;;;;;;;;;19.24;55.62;102095.53;5055738;28;1899;-37
2021/12/22 10:56:36;;;;;;;;;;;;;;;19.25;56.01;102091.88;5054926;28;1312;-37
2021/12/22 10:59:16;;;;;;;;;;;;;;;19.33;55.33;102082.44;5055982;28;2014;-37
2021/12/22 11:02:06;;;;;;;;;;;;;;;19.32;55.76;102086.97;5055434;28;1442;-37
2021/12/22 11:04:34;;;;;;;;;;;;;;;19.38;55.28;102089.22;5055574;28;1902;-37
2021/12/22 11:07:08;;;;;;;;;;;;;;;19.50;55.38;102083.94;5055744;28;2054;-37
2021/12/22 11:09:37;;;;;;;;;;;;;;;19.52;55.53;102088.25;5055719;28;1514;-37
2021/12/22 11:12:05;;;;;;;;;;;;;;;19.51;55.07;102074.94;5055694;28;1780;-37
2021/12/22 11:14:46;;;;;;;;;;;;;;;19.59;55.41;102078.81;5055591;28;1999;-37
2021/12/22 11:17:14;;;;;;;;;;;;;;;19.40;54.51;102073.03;5055211;28;1689;-37
2021/12/22 11:19:58;;;;;;;;;;;;;;;19.46;55.64;102076.13;5055599;28;1620;-37
2021/12/22 11:22:46;;;;;;;;;;;;;;;19.24;55.32;102073.22;5054433;28;1555;-37
2021/12/22 11:25:19;;;;;;;;;;;;;;;19.38;55.07;102070.44;5055098;28;1983;-37
2021/12/22 11:27:50;;;;;;;;;;;;;;;19.55;55.25;102076.44;5055446;28;1162;-37
2021/12/22 11:30:19;;;;;;;;;;;;;;;19.35;55.13;102067.97;5054965;28;1564;-37
2021/12/22 11:32:46;;;;;;;;;;;;;;;19.48;55.47;102074.19;5054661;28;1557;-36
2021/12/22 11:35:16;;;;;;;;;;;;;;;19.38;54.98;102073.13;5055095;28;1826;-37
2021/12/22 11:37:53;;;;;;;;;;;;;;;19.33;55.68;102064.53;5046519;28;1810;-37
2021/12/22 11:40:22;;;;;;;;;;;;;;;19.44;55.49;102085.25;5046170;28;1773;-37
2021/12/22 11:42:50;;;;;;;;;;;;;;;19.36;55.30;102077.75;5055156;28;1067;-37
2021/12/22 11:45:23;;;;;;;;;;;;;;;19.33;55.93;102061.84;5053986;28;2034;-37
2021/12/22 11:47:52;;;;;;;;;;;;;;;19.37;55.34;102057.13;5054670;28;1813;-37
2021/12/22 11:50:29;;;;;;;;;;;;;;;19.27;56.08;102063.13;5054299;28;1806;-37
2021/12/22 11:52:58;;;;;;;;;;;;;;;19.25;56.09;102053.47;5054528;28;1473;-37
2021/12/22 11:55:29;;;;;;;;;;;;;;;19.29;56.06;102054.97;5053948;28;1466;-37
2021/12/22 11:58:12;;;;;;;;;;;;;;;19.41;54.84;102059.47;5054879;28;1131;-37
2021/12/22 12:00:42;;;;;;;;;;;;;;;19.31;56.07;102057.56;5054737;28;1792;-37
2021/12/22 12:03:36;;;;;;;;;;;;;;;19.22;56.18;102051.03;5054288;28;1715;-37
2021/12/22 12:06:16;;;;;;;;;;;;;;;19.26;55.66;102047.16;5041775;28;1890;-37
2021/12/22 12:08:51;;;;;;;;;;;;;;;19.32;54.81;102043.16;5046934;28;1570;-37
2021/12/22 12:11:45;;;;;;;;;;;;;;;19.34;55.54;102047.47;5041292;28;1624;-37
2021/12/22 12:14:31;;;;;;;;;;;;;;;19.45;55.39;102050.25;5048672;28;1566;-37
2021/12/22 12:23:13;;;;;;;;;;;;;;;19.47;55.63;102059.06;5054219;28;1687;-37
2021/12/22 12:25:40;;;;;;;;;;;;;;;19.38;55.84;102046.31;5052347;28;2413;-37
2021/12/22 12:28:15;;;;;;;;;;;;;;;19.29;55.76;102054.97;5054348;28;1150;-37
2021/12/22 12:30:45;;;;;;;;;;;;;;;19.44;55.44;102053.91;5053863;28;1827;-37
2021/12/22 12:33:33;;;;;;;;;;;;;;;19.53;54.72;102054.25;5054091;28;1997;-37
2021/12/22 12:36:09;;;;;;;;;;;;;;;19.22;55.19;102054.56;5053559;28;1444;-37
2021/12/22 12:39:06;;;;;;;;;;;;;;;19.36;55.43;102056.28;5054036;28;1846;-37
2021/12/22 12:41:36;;;;;;;;;;;;;;;19.27;55.74;102051.53;5049936;28;1892;-37
2021/12/22 12:44:09;;;;;;;;;;;;;;;19.37;54.87;102035.66;5053307;28;1969;-37
2021/12/22 12:46:53;;;;;;;;;;;;;;;19.41;54.88;102059.47;5047063;28;1382;-37
2021/12/22 12:49:44;;;;;;;;;;;;;;;19.34;56.20;102058.22;5053387;28;1852;-38
2021/12/22 12:52:32;;;;;;;;;;;;;;;19.45;55.58;102062.81;5041407;28;1075;-37
2021/12/22 12:55:15;;;;;;;;;;;;;;;19.22;55.93;102059.06;5053471;28;1793;-37
2021/12/22 12:57:43;;;;;;;;;;;;;;;19.30;55.85;102045.97;5051867;28;1535;-37
2021/12/22 13:00:21;;;;;;;;;;;;;;;19.45;55.25;102044.03;5053114;28;1485;-37
2021/12/22 13:02:50;;;;;;;;;;;;;;;19.38;54.88;102040.94;5053265;28;1668;-37
2021/12/22 13:05:18;;;;;;;;;;;;;;;19.41;54.85;102038.03;5053613;28;1901;-37
2021/12/22 13:08:01;;;;;;;;;;;;;;;19.36;54.82;102045.56;5053306;28;1624;-37
2021/12/22 13:10:36;;;;;;;;;;;;;;;19.32;54.94;102049.41;5047474;28;1632;-38
2021/12/22 13:13:19;;;;;;;;;;;;;;;19.48;54.62;102042.00;5051463;28;1071;-37
2021/12/22 13:15:53;;;;;;;;;;;;;;;19.32;55.34;102040.47;5052493;28;1623;-37
2021/12/22 13:18:28;;;;;;;;;;;;;;;19.41;54.88;102039.84;5053103;28;1779;-37
2021/12/22 13:21:06;;;;;;;;;;;;;;;19.42;54.75;102037.06;5052934;28;1938;-37
2021/12/22 13:23:36;;;;;;;;;;;;;;;19.34;55.44;102047.47;5053065;28;2001;-37
2021/12/22 13:26:09;;;;;;;;;;;;;;;19.38;55.64;102038.25;5053199;28;1937;-36
2021/12/22 13:28:39;;;;;;;;;;;;;;;19.25;56.21;102038.22;5053738;28;1060;-37
2021/12/22 13:31:21;;;;;;;;;;;;;;;19.33;54.95;102040.38;5052913;28;1988;-37